SMZO/ORG METAR and TAF weather

Enter ICAO airport designator
Station Type Date Time Source
SMZO METAR 2020/07/15 00:00 UTC NOAA

SMZO 150000Z 07006KT 9999 SCT015 28/24 Q1013 NOSIG


Station Type Date Time Source
SMZO Decoded METAR 2020/07/15 00:00 UTC NOAA

Station name not available
Jul 14, 2020 - 08:00 PM EDT / 2020.07.15 0000 UTC
Wind: from the ENE (070 degrees) at 7 MPH (6 KT):0
Visibility: greater than 7 mile(s):0
Sky conditions: partly cloudy
Temperature: 82 F (28 C)
Dew Point: 75 F (24 C)
Relative Humidity: 78%
Pressure (altimeter): 29.91 in. Hg (1013 hPa)
ob: SMZO 150000Z 07006KT 9999 SCT015 28/24 Q1013 NOSIG
cycle: 0

Station Type Date Time Source
SMZO TAF 2020/07/14 18:21 UTC NOAA

TAF TAF SMZO 141600Z 1418/1518 08008KT 9999 SCT030 TX33/1418Z TN24/1509Z PROB30
TEMPO 1419/1421 5000 TSRA SHRA FEW015CB SCT018
FM142300 08003KT CAVOK PROB30
TEMPO 1509/1510 4500 BR SCT005
FM151200 13008KT 9999 SCT015

Example: see airport list